createdAt,value
2018-07-31T00:00:49.108Z,5.80
2018-07-31T00:03:17.918Z,5.10
2018-07-31T00:05:46.643Z,6.13
2018-07-31T00:08:15.337Z,5.80
2018-07-31T00:10:44.076Z,5.33
2018-07-31T00:13:12.843Z,5.17
2018-07-31T00:15:41.520Z,5.37
2018-07-31T00:18:10.305Z,6.40
2018-07-31T00:20:39.196Z,5.40
2018-07-31T00:23:08.005Z,5.00
2018-07-31T00:25:36.758Z,4.97
2018-07-31T00:28:06.144Z,5.90
2018-07-31T00:30:34.871Z,5.80
2018-07-31T00:33:03.634Z,5.47
2018-07-31T00:35:32.385Z,6.30
2018-07-31T00:38:01.161Z,4.53
2018-07-31T00:40:29.908Z,4.37
2018-07-31T00:42:58.642Z,5.70
2018-07-31T00:45:27.381Z,5.00
2018-07-31T00:47:56.132Z,5.40
2018-07-31T00:50:24.852Z,6.30
2018-07-31T00:52:53.204Z,6.50
2018-07-31T00:55:21.899Z,5.77
2018-07-31T00:57:50.577Z,6.47
2018-07-31T01:00:19.315Z,6.20
2018-07-31T01:02:47.993Z,6.00
2018-07-31T01:05:16.705Z,5.63
2018-07-31T01:07:45.443Z,6.63
2018-07-31T01:10:14.224Z,6.33
2018-07-31T01:12:46.243Z,5.37
2018-07-31T01:15:19.990Z,5.97
2018-07-31T01:17:53.003Z,6.60
2018-07-31T01:20:28.245Z,5.60
2018-07-31T01:23:05.241Z,5.20
2018-07-31T01:25:39.138Z,5.60
2018-07-31T01:28:12.785Z,5.67
2018-07-31T01:30:46.879Z,5.90
2018-07-31T01:33:20.677Z,5.80
2018-07-31T01:35:54.865Z,5.87
2018-07-31T01:38:28.618Z,5.83
2018-07-31T01:41:03.243Z,5.20
2018-07-31T01:43:36.400Z,5.77
2018-07-31T01:46:13.278Z,5.50
2018-07-31T01:48:46.219Z,5.50
2018-07-31T01:51:19.570Z,6.00
2018-07-31T01:53:54.716Z,6.00
2018-07-31T01:56:29.564Z,5.90
2018-07-31T01:59:06.312Z,5.60
2018-07-31T02:01:40.476Z,5.40
2018-07-31T02:04:14.298Z,5.70
2018-07-31T02:06:47.350Z,6.20
2018-07-31T02:09:20.209Z,7.13
2018-07-31T02:11:53.325Z,5.07
2018-07-31T02:14:29.274Z,5.70
2018-07-31T02:17:02.657Z,6.33
2018-07-31T02:19:36.158Z,5.53
2018-07-31T02:22:07.831Z,6.53
2018-07-31T02:24:41.688Z,6.17
2018-07-31T02:27:16.045Z,6.13
2018-07-31T02:29:55.931Z,5.20
2018-07-31T02:32:30.611Z,6.10
2018-07-31T02:35:03.662Z,5.70
2018-07-31T02:37:36.540Z,6.30
2018-07-31T02:40:11.567Z,6.20
2018-07-31T02:42:44.348Z,5.97
2018-07-31T02:45:17.623Z,6.13
2018-07-31T02:47:51.558Z,6.03
2018-07-31T02:50:24.804Z,5.73
2018-07-31T02:52:57.677Z,6.90
2018-07-31T02:55:29.343Z,6.40
2018-07-31T02:58:02.851Z,6.40
2018-07-31T03:00:35.681Z,6.50
2018-07-31T03:03:08.055Z,5.73
2018-07-31T03:05:45.345Z,6.47
2018-07-31T03:08:17.950Z,7.20
2018-07-31T03:10:50.136Z,6.73
2018-07-31T03:13:23.262Z,6.07
2018-07-31T03:15:55.819Z,5.53
2018-07-31T03:18:28.788Z,6.07
2018-07-31T03:21:01.060Z,6.33
2018-07-31T03:23:32.287Z,6.53
2018-07-31T03:26:05.989Z,5.63
2018-07-31T03:28:38.193Z,5.10
2018-07-31T03:31:10.249Z,6.43
2018-07-31T03:33:42.746Z,6.50
2018-07-31T03:36:15.753Z,6.30
2018-07-31T03:38:49.717Z,6.10
2018-07-31T03:41:22.487Z,6.33
2018-07-31T03:43:55.483Z,6.27
2018-07-31T03:46:29.168Z,6.33
2018-07-31T03:49:01.637Z,6.63
2018-07-31T03:51:34.575Z,6.10
2018-07-31T03:54:07.608Z,6.20
2018-07-31T03:56:40.514Z,6.80
2018-07-31T03:59:13.510Z,8.30
2018-07-31T04:01:47.087Z,7.17
2018-07-31T04:04:19.950Z,6.90
2018-07-31T04:06:52.773Z,6.30
2018-07-31T04:09:25.663Z,6.67
2018-07-31T04:11:58.835Z,6.03
2018-07-31T04:14:32.842Z,7.10
2018-07-31T04:17:05.804Z,7.37
2018-07-31T04:19:38.767Z,6.40
2018-07-31T04:22:11.689Z,7.67
2018-07-31T04:24:44.276Z,6.30
2018-07-31T04:27:18.004Z,7.40
2018-07-31T04:29:51.699Z,7.10
2018-07-31T04:32:33.004Z,8.10
2018-07-31T04:35:07.297Z,7.00
2018-07-31T04:37:39.888Z,7.10
2018-07-31T04:40:12.899Z,8.17
2018-07-31T04:42:45.728Z,8.00
2018-07-31T04:45:19.813Z,7.60
2018-07-31T04:47:54.144Z,7.47
2018-07-31T04:50:28.169Z,7.00
2018-07-31T04:53:01.480Z,7.20
2018-07-31T04:55:34.287Z,7.30
2018-07-31T04:58:07.112Z,8.10
2018-07-31T05:00:39.820Z,7.50
2018-07-31T05:03:12.808Z,7.20
2018-07-31T05:05:45.653Z,6.87
2018-07-31T05:08:18.253Z,7.60
2018-07-31T05:10:50.980Z,7.30
2018-07-31T05:13:23.226Z,8.23
2018-07-31T05:15:55.873Z,7.43
2018-07-31T05:18:27.782Z,7.70
2018-07-31T05:21:01.423Z,16.60
2018-07-31T05:23:33.565Z,9.50
2018-07-31T05:26:05.631Z,8.00
2018-07-31T05:28:38.168Z,8.37
2018-07-31T05:31:10.701Z,9.40
2018-07-31T05:33:43.490Z,8.13
2018-07-31T05:36:14.662Z,8.77
2018-07-31T05:38:45.628Z,21.50
2018-07-31T05:41:17.958Z,11.40
2018-07-31T05:43:50.505Z,9.37
2018-07-31T05:46:22.552Z,8.10
2018-07-31T05:48:54.385Z,9.17
2018-07-31T05:51:27.388Z,11.03
2018-07-31T05:54:00.795Z,10.37
2018-07-31T05:56:33.780Z,9.10
2018-07-31T05:59:06.793Z,10.47
2018-07-31T06:01:39.900Z,10.03
2018-07-31T06:04:12.250Z,10.00
2018-07-31T06:06:45.845Z,11.27
2018-07-31T06:09:18.696Z,11.30
2018-07-31T06:11:52.630Z,10.40
2018-07-31T06:14:24.053Z,10.73
2018-07-31T06:16:56.633Z,9.30
2018-07-31T06:19:27.955Z,9.30
2018-07-31T06:22:02.847Z,10.17
2018-07-31T06:25:02.148Z,10.43
2018-07-31T06:27:36.156Z,11.20
2018-07-31T06:30:10.198Z,11.83
2018-07-31T06:32:42.207Z,11.57
2018-07-31T06:35:14.229Z,11.07
2018-07-31T06:37:45.039Z,12.10
2018-07-31T06:40:15.757Z,12.27
2018-07-31T06:42:48.111Z,11.37
2018-07-31T06:45:20.150Z,13.57
2018-07-31T06:47:52.506Z,11.90
2018-07-31T06:50:25.397Z,11.43
2018-07-31T06:52:57.936Z,12.33
2018-07-31T06:55:30.020Z,11.00
2018-07-31T06:58:03.041Z,11.90
2018-07-31T07:00:35.191Z,12.77
2018-07-31T07:03:06.975Z,11.67
2018-07-31T07:05:39.099Z,12.67
2018-07-31T07:08:15.131Z,10.63
2018-07-31T07:10:45.623Z,11.30
2018-07-31T07:13:16.748Z,10.73
2018-07-31T07:15:50.252Z,10.27
2018-07-31T07:18:19.560Z,11.17
2018-07-31T07:20:50.045Z,10.83
2018-07-31T07:23:21.143Z,16.33
2018-07-31T07:25:51.805Z,12.53
2018-07-31T07:28:22.151Z,10.53
2018-07-31T07:30:53.774Z,11.33
2018-07-31T07:33:24.936Z,9.47
2018-07-31T07:35:55.873Z,8.73
2018-07-31T07:38:28.812Z,10.00
2018-07-31T07:40:57.612Z,8.80
2018-07-31T07:43:26.617Z,9.17
2018-07-31T07:45:55.458Z,9.53
2018-07-31T07:48:24.530Z,9.70
2018-07-31T07:50:54.254Z,8.33
2018-07-31T07:53:23.932Z,8.63
2018-07-31T07:55:52.837Z,10.87
2018-07-31T07:58:21.978Z,8.77
2018-07-31T08:00:53.010Z,9.13
2018-07-31T08:03:22.194Z,8.80
2018-07-31T08:05:51.346Z,8.57
2018-07-31T08:08:20.524Z,8.90
2018-07-31T08:10:49.688Z,9.30
2018-07-31T08:13:18.567Z,9.10
2018-07-31T08:15:47.385Z,8.00
2018-07-31T08:18:35.054Z,7.90
2018-07-31T08:21:03.864Z,9.90
2018-07-31T08:23:32.794Z,8.80
2018-07-31T08:26:01.641Z,9.03
2018-07-31T08:28:30.762Z,8.80
2018-07-31T08:30:59.189Z,8.40
2018-07-31T08:33:28.180Z,8.70
2018-07-31T08:35:56.931Z,8.50
2018-07-31T08:38:25.982Z,8.50
2018-07-31T08:40:55.027Z,8.70
2018-07-31T08:43:24.144Z,8.87
2018-07-31T08:45:53.425Z,8.23
2018-07-31T08:48:22.289Z,8.77
2018-07-31T08:50:51.551Z,9.43
2018-07-31T08:53:20.567Z,8.17
2018-07-31T08:55:49.615Z,7.67
2018-07-31T08:58:18.447Z,8.00
2018-07-31T09:00:47.193Z,9.83
2018-07-31T09:03:16.058Z,8.70
2018-07-31T09:05:44.884Z,8.40
2018-07-31T09:08:13.816Z,8.60
2018-07-31T09:10:42.597Z,8.80
2018-07-31T09:13:11.443Z,8.90
2018-07-31T09:15:40.207Z,8.23
2018-07-31T09:18:09.120Z,7.87
2018-07-31T09:20:37.937Z,8.30
2018-07-31T09:23:06.798Z,9.17
2018-07-31T09:25:40.921Z,8.07
2018-07-31T09:28:09.737Z,7.50
2018-07-31T09:30:43.289Z,9.70
2018-07-31T09:33:12.105Z,9.47
2018-07-31T09:35:40.952Z,7.70
2018-07-31T09:38:10.010Z,8.00
2018-07-31T09:40:38.785Z,7.03
2018-07-31T09:43:07.561Z,7.10
2018-07-31T09:45:36.829Z,7.70
2018-07-31T09:48:05.646Z,7.50
2018-07-31T09:50:35.361Z,7.27
2018-07-31T09:53:04.205Z,7.87
2018-07-31T09:55:33.209Z,6.53
2018-07-31T09:58:01.948Z,7.57
2018-07-31T10:00:36.074Z,7.87
2018-07-31T10:03:05.136Z,6.90
2018-07-31T10:05:34.117Z,7.40
2018-07-31T10:08:03.233Z,7.67
2018-07-31T10:10:32.268Z,7.60
2018-07-31T10:13:01.447Z,6.83
2018-07-31T10:15:30.433Z,7.60
2018-07-31T10:17:59.645Z,6.80
2018-07-31T10:20:29.030Z,7.40
2018-07-31T10:22:57.780Z,8.00
2018-07-31T10:25:26.813Z,7.10
2018-07-31T10:27:56.175Z,7.33
2018-07-31T10:30:25.691Z,7.60
2018-07-31T10:32:54.747Z,7.70
2018-07-31T10:35:23.886Z,8.47
2018-07-31T10:37:53.246Z,7.53
2018-07-31T10:40:22.192Z,6.70
2018-07-31T10:42:51.275Z,6.53
2018-07-31T10:45:20.794Z,7.60
2018-07-31T10:47:49.973Z,7.10
2018-07-31T10:50:19.279Z,7.43
2018-07-31T10:52:48.520Z,7.47
2018-07-31T10:55:17.460Z,7.50
2018-07-31T10:57:46.852Z,7.30
2018-07-31T11:00:16.279Z,8.13
2018-07-31T11:02:45.344Z,7.30
2018-07-31T11:05:15.643Z,7.97
2018-07-31T11:07:44.903Z,7.50
2018-07-31T11:10:14.424Z,8.53
2018-07-31T11:12:44.648Z,7.93
2018-07-31T11:15:14.645Z,7.27
2018-07-31T11:17:44.175Z,6.73
2018-07-31T11:20:13.859Z,7.27
2018-07-31T11:22:43.014Z,6.80
2018-07-31T11:25:12.571Z,6.63
2018-07-31T11:27:42.041Z,7.03
2018-07-31T11:30:11.041Z,6.60
2018-07-31T11:32:40.435Z,7.23
2018-07-31T11:35:09.977Z,6.40
2018-07-31T11:37:39.646Z,7.70
2018-07-31T11:40:09.423Z,7.20
2018-07-31T11:42:38.541Z,7.73
2018-07-31T11:45:08.208Z,7.03
2018-07-31T11:47:36.972Z,7.50
2018-07-31T11:50:06.980Z,7.13
2018-07-31T11:52:36.475Z,7.30
2018-07-31T11:55:06.097Z,7.53
2018-07-31T11:57:35.354Z,7.50
2018-07-31T12:00:06.208Z,7.87
2018-07-31T12:02:34.914Z,6.63
2018-07-31T12:05:04.230Z,6.53
2018-07-31T12:07:33.212Z,7.20
2018-07-31T12:10:02.782Z,6.70
2018-07-31T12:12:32.523Z,9.23
2018-07-31T12:15:08.309Z,7.17
2018-07-31T12:17:37.661Z,8.77
2018-07-31T12:20:06.561Z,7.90
2018-07-31T12:22:35.446Z,5.87
2018-07-31T12:25:04.719Z,6.53
2018-07-31T12:27:33.468Z,6.20
2018-07-31T12:30:02.843Z,5.77
2018-07-31T12:32:32.278Z,6.53
2018-07-31T12:35:01.575Z,5.40
2018-07-31T12:37:30.812Z,6.40
2018-07-31T12:40:00.473Z,6.20
2018-07-31T12:42:30.005Z,6.17
2018-07-31T12:44:58.991Z,5.80
2018-07-31T12:47:28.698Z,6.43
2018-07-31T12:50:20.368Z,5.57
2018-07-31T12:52:50.559Z,5.33
2018-07-31T12:55:19.354Z,6.20
2018-07-31T12:57:48.910Z,6.13
2018-07-31T13:00:17.950Z,5.63
2018-07-31T13:02:47.257Z,7.07
2018-07-31T13:05:16.581Z,6.07
2018-07-31T13:07:46.129Z,5.37
2018-07-31T13:10:16.040Z,6.10
2018-07-31T13:12:45.336Z,6.50
2018-07-31T13:15:15.410Z,5.90
2018-07-31T13:17:44.926Z,6.10
2018-07-31T13:20:14.872Z,6.50
2018-07-31T13:22:44.546Z,9.97
2018-07-31T13:25:14.106Z,9.80
2018-07-31T13:27:44.035Z,5.87
2018-07-31T13:30:13.671Z,5.97
2018-07-31T13:32:45.622Z,6.03
2018-07-31T13:35:15.636Z,6.70
2018-07-31T13:37:46.224Z,5.70
2018-07-31T13:40:16.349Z,5.93
2018-07-31T13:42:45.574Z,6.03
2018-07-31T13:45:14.733Z,6.97
2018-07-31T13:47:44.578Z,6.93
2018-07-31T13:50:13.805Z,5.93
2018-07-31T13:52:43.220Z,6.43
2018-07-31T13:55:12.468Z,5.90
2018-07-31T13:57:41.439Z,5.47
2018-07-31T14:00:10.765Z,6.83
2018-07-31T14:02:39.977Z,9.83
2018-07-31T14:05:09.178Z,6.73
2018-07-31T14:07:38.180Z,7.47
2018-07-31T14:10:07.533Z,6.17
2018-07-31T14:12:37.053Z,5.83
2018-07-31T14:15:06.831Z,5.80
2018-07-31T14:17:35.957Z,6.77
2018-07-31T14:20:06.186Z,5.73
2018-07-31T14:22:35.823Z,5.23
2018-07-31T14:25:05.654Z,5.93
2018-07-31T14:27:35.151Z,6.17
2018-07-31T14:30:04.588Z,6.37
2018-07-31T14:32:33.427Z,6.30
2018-07-31T14:35:02.582Z,5.20
2018-07-31T14:37:31.883Z,7.10
2018-07-31T14:40:01.947Z,5.60
2018-07-31T14:42:31.086Z,5.60
2018-07-31T14:45:00.232Z,5.50
2018-07-31T14:47:29.658Z,5.37
2018-07-31T14:49:59.208Z,5.43
2018-07-31T14:52:28.505Z,6.40
2018-07-31T14:54:57.396Z,5.13
2018-07-31T14:57:26.397Z,5.33
2018-07-31T14:59:55.561Z,5.63
2018-07-31T15:02:24.073Z,6.80
2018-07-31T15:04:53.203Z,5.93
2018-07-31T15:07:22.278Z,5.73
2018-07-31T15:09:51.200Z,5.83
2018-07-31T15:12:20.026Z,6.30
2018-07-31T15:14:48.891Z,6.67
2018-07-31T15:17:17.850Z,5.67
2018-07-31T15:19:46.979Z,4.80
2018-07-31T15:22:16.114Z,5.40
2018-07-31T15:24:44.969Z,6.40
2018-07-31T15:27:14.076Z,5.93
2018-07-31T15:29:43.258Z,5.17
2018-07-31T15:32:18.674Z,5.17
2018-07-31T15:34:47.695Z,6.30
2018-07-31T15:37:16.432Z,5.80
2018-07-31T15:39:45.548Z,5.77
2018-07-31T15:42:15.045Z,6.00
2018-07-31T15:44:43.971Z,5.90
2018-07-31T15:47:13.164Z,6.83
2018-07-31T15:49:42.083Z,6.10
2018-07-31T15:52:11.048Z,5.50
2018-07-31T15:54:40.077Z,6.07
2018-07-31T15:57:09.172Z,6.40
2018-07-31T15:59:38.329Z,5.43
2018-07-31T16:02:07.847Z,6.00
2018-07-31T16:04:36.658Z,6.27
2018-07-31T16:07:05.473Z,5.90
2018-07-31T16:09:34.622Z,6.47
2018-07-31T16:12:03.392Z,6.50
2018-07-31T16:14:32.251Z,7.13
2018-07-31T16:17:01.128Z,6.43
2018-07-31T16:19:29.917Z,7.00
2018-07-31T16:21:59.130Z,7.40
2018-07-31T16:24:28.488Z,6.30
2018-07-31T16:26:57.730Z,6.83
2018-07-31T16:29:27.058Z,6.73
2018-07-31T16:31:56.079Z,5.90
2018-07-31T16:34:25.119Z,7.10
2018-07-31T16:36:54.176Z,6.60
2018-07-31T16:39:23.155Z,6.77
2018-07-31T16:41:52.144Z,6.33
2018-07-31T16:44:20.884Z,6.10
2018-07-31T16:46:49.955Z,7.33
2018-07-31T16:49:18.977Z,7.00
2018-07-31T16:51:47.977Z,6.00
2018-07-31T16:54:16.895Z,6.60
2018-07-31T16:56:45.753Z,6.10
2018-07-31T16:59:14.450Z,6.10
2018-07-31T17:01:43.453Z,5.87
2018-07-31T17:04:12.305Z,6.17
2018-07-31T17:06:41.277Z,6.20
2018-07-31T17:09:10.514Z,6.10
2018-07-31T17:11:39.205Z,7.30
2018-07-31T17:14:08.052Z,6.90
2018-07-31T17:16:37.054Z,7.77
2018-07-31T17:19:06.060Z,5.80
2018-07-31T17:21:35.142Z,6.50
2018-07-31T17:24:04.270Z,7.13
2018-07-31T17:26:33.283Z,6.20
2018-07-31T17:29:02.373Z,6.77
2018-07-31T17:31:31.453Z,6.90
2018-07-31T17:34:00.754Z,6.80
2018-07-31T17:36:29.872Z,6.00
2018-07-31T17:38:59.132Z,5.17
2018-07-31T17:41:28.504Z,6.10
2018-07-31T17:43:57.840Z,6.37
2018-07-31T17:46:27.006Z,5.77
2018-07-31T17:48:55.882Z,6.90
2018-07-31T17:51:29.993Z,6.30
2018-07-31T17:53:58.959Z,7.57
2018-07-31T17:56:28.151Z,6.03
2018-07-31T17:58:57.030Z,5.47
2018-07-31T18:01:26.192Z,5.40
2018-07-31T18:03:55.282Z,5.10
2018-07-31T18:06:24.873Z,5.27
2018-07-31T18:08:53.583Z,6.03
2018-07-31T18:11:23.895Z,5.77
2018-07-31T18:13:52.744Z,5.30
2018-07-31T18:16:21.899Z,4.80
2018-07-31T18:18:50.413Z,5.33
2018-07-31T18:21:19.363Z,4.63
2018-07-31T18:23:48.360Z,4.80
2018-07-31T18:26:17.594Z,5.20
2018-07-31T18:28:46.818Z,4.90
2018-07-31T18:31:15.360Z,5.70
2018-07-31T18:33:44.493Z,6.20
2018-07-31T18:36:13.431Z,5.90
2018-07-31T18:38:42.644Z,5.47
2018-07-31T18:41:12.087Z,5.47
2018-07-31T18:43:41.280Z,5.47
2018-07-31T18:46:10.345Z,5.63
2018-07-31T18:48:39.576Z,5.07
2018-07-31T18:51:08.537Z,6.00
2018-07-31T18:53:37.353Z,5.60
2018-07-31T18:56:06.500Z,5.57
2018-07-31T18:58:35.710Z,4.80
2018-07-31T19:01:04.676Z,5.50
2018-07-31T19:03:33.656Z,5.20
2018-07-31T19:06:02.620Z,6.37
2018-07-31T19:08:31.577Z,5.90
2018-07-31T19:11:00.700Z,5.10
2018-07-31T19:13:29.839Z,5.70
2018-07-31T19:15:58.897Z,5.60
2018-07-31T19:18:27.962Z,4.50
2018-07-31T19:20:56.772Z,5.80
2018-07-31T19:23:25.686Z,5.00
2018-07-31T19:25:54.375Z,5.30
2018-07-31T19:28:23.836Z,4.57
2018-07-31T19:30:52.889Z,5.57
2018-07-31T19:33:22.276Z,4.83
2018-07-31T19:35:51.109Z,5.00
2018-07-31T19:38:20.298Z,5.23
2018-07-31T19:40:49.721Z,4.47
2018-07-31T19:43:18.525Z,4.87
2018-07-31T19:45:47.369Z,5.37
2018-07-31T19:48:16.514Z,5.47
2018-07-31T19:50:45.748Z,4.80
2018-07-31T19:53:14.794Z,4.73
2018-07-31T19:55:43.722Z,5.27
2018-07-31T19:58:12.701Z,4.70
2018-07-31T20:00:41.493Z,5.27
2018-07-31T20:03:15.178Z,4.70
2018-07-31T20:05:44.094Z,4.97
2018-07-31T20:08:13.026Z,5.50
2018-07-31T20:10:42.033Z,5.40
2018-07-31T20:13:10.924Z,5.20
2018-07-31T20:15:40.223Z,4.67
2018-07-31T20:18:09.044Z,6.10
2018-07-31T20:20:37.785Z,5.63
2018-07-31T20:23:06.657Z,6.00
2018-07-31T20:25:35.474Z,6.30
2018-07-31T20:28:04.296Z,5.50
2018-07-31T20:30:33.398Z,5.10
2018-07-31T20:33:03.097Z,5.43
2018-07-31T20:35:32.159Z,4.73
2018-07-31T20:38:01.163Z,5.20
2018-07-31T20:40:30.004Z,5.20
2018-07-31T20:42:58.972Z,4.70
2018-07-31T20:45:28.144Z,5.03
2018-07-31T20:47:57.109Z,5.40
2018-07-31T20:50:25.937Z,4.93
2018-07-31T20:52:55.370Z,5.60
2018-07-31T20:55:24.247Z,4.57
2018-07-31T20:57:53.413Z,4.53
2018-07-31T21:00:21.980Z,4.23
2018-07-31T21:02:51.239Z,3.97
2018-07-31T21:05:20.753Z,5.80
2018-07-31T21:07:50.162Z,4.50
2018-07-31T21:10:19.401Z,5.10
2018-07-31T21:12:48.322Z,5.23
2018-07-31T21:15:17.167Z,4.93
2018-07-31T21:17:45.935Z,4.63
2018-07-31T21:20:14.688Z,4.07
2018-07-31T21:22:43.522Z,4.10
2018-07-31T21:25:12.262Z,4.53
2018-07-31T21:27:40.724Z,4.43
2018-07-31T21:30:09.576Z,4.70
2018-07-31T21:32:38.714Z,4.50
2018-07-31T21:35:08.046Z,4.37
2018-07-31T21:37:36.800Z,4.23
2018-07-31T21:40:05.776Z,4.03
2018-07-31T21:42:34.594Z,5.50
2018-07-31T21:45:04.772Z,4.70
2018-07-31T21:47:34.366Z,4.03
2018-07-31T21:50:03.713Z,4.43
2018-07-31T21:52:32.881Z,4.27
2018-07-31T21:55:02.063Z,4.50
2018-07-31T21:57:30.922Z,4.97
2018-07-31T22:00:00.240Z,4.57
2018-07-31T22:02:29.060Z,4.80
2018-07-31T22:04:57.990Z,4.07
2018-07-31T22:07:27.198Z,5.67
2018-07-31T22:09:56.285Z,4.57
2018-07-31T22:12:25.375Z,4.00
2018-07-31T22:14:54.226Z,4.77
2018-07-31T22:17:22.956Z,4.70
2018-07-31T22:19:51.757Z,5.37
2018-07-31T22:22:20.585Z,5.13
2018-07-31T22:24:49.763Z,4.93
2018-07-31T22:27:18.878Z,4.67
2018-07-31T22:29:47.699Z,4.70
2018-07-31T22:32:16.518Z,4.87
2018-07-31T22:34:44.832Z,4.53
2018-07-31T22:37:13.550Z,4.50
2018-07-31T22:39:42.532Z,6.30
2018-07-31T22:42:11.531Z,4.53
2018-07-31T22:44:40.307Z,5.57
2018-07-31T22:47:09.062Z,5.60
2018-07-31T22:49:37.792Z,5.40
2018-07-31T22:52:07.110Z,4.87
2018-07-31T22:54:35.813Z,5.00
2018-07-31T22:57:04.775Z,4.93
2018-07-31T22:59:33.526Z,5.30
2018-07-31T23:02:02.277Z,5.07
2018-07-31T23:04:31.011Z,5.57
2018-07-31T23:06:59.844Z,4.90
2018-07-31T23:09:28.588Z,5.07
2018-07-31T23:11:57.463Z,5.30
2018-07-31T23:14:26.165Z,5.47
2018-07-31T23:16:55.086Z,4.90
2018-07-31T23:19:23.906Z,5.27
2018-07-31T23:21:52.640Z,4.13
2018-07-31T23:24:21.452Z,5.70
2018-07-31T23:26:50.241Z,5.23
2018-07-31T23:29:18.920Z,5.20
2018-07-31T23:31:47.788Z,4.70
2018-07-31T23:34:16.128Z,4.90
2018-07-31T23:36:44.906Z,5.40
2018-07-31T23:39:13.633Z,5.57
2018-07-31T23:41:42.296Z,5.13
2018-07-31T23:44:11.026Z,4.70
2018-07-31T23:46:40.097Z,5.47
2018-07-31T23:49:08.864Z,5.33
2018-07-31T23:51:37.605Z,4.70
2018-07-31T23:54:06.421Z,4.53
2018-07-31T23:56:35.151Z,5.27
2018-07-31T23:59:03.860Z,4.93
